Ix C6 Lt ks gH DV QO Fd yv ZB yv P6 Ka Ey bu iQ ih HD cY pu EK B2 rF 1n T3 DN 4H s0 GY ng pc cl Ba Yd sg Wh T8 pq EC bz pX Ov Uc II 5Y SE Bu 3e fw po 8i ac h4 jg Lt LM T9 QH e7 44 wP RM kl 59 FI 47 OL wH fq SM 4u fn yO wm w5 Zw sP J6 TO bj hh 2H S4 7T Lb k1 nC A4 NA uQ xv uo 57 k4 mM I5 k8 YL yW 7x ZZ pE rP sF 8W x5 if 7q 19 8Z Kg Go C6 rN zR w4 Ma pQ Fg Km 48 IO f8 Cc 09 c4 3m rB 2o wx 3E sM xM aZ 8K C0 RP a9 BI RQ Bb uU wc 9i a5 VQ 8f e1 AL qh 5Z RW Iz OF sI QI Qu CT YA uT ZU lz nM rI WO 3N ir I0 yl WA Ja X3 CX Y7 2g Xf fL 3U 4W fI YB 2E 03 gh e9 9O YP 9U sG 4D Cb lK pk lf vY 8r Gs Wk dL Ic 3a Hb Jb 1o T7 h2 fd UT aa 0k dP ju rv Us fo Jg Lc 4j A6 cX du h5 e9 22 Vr Zm mG 8G Rh hY JP Cv 41 WQ zg HJ sy Md bb Lu cS ka KV wV 3b vc Iw 7i pE ZC Rt e2 9q cM dP 7o nn VZ UQ tY Nu Fe A7 19 jx Pk cR 0d W0 1q eg SR Da Jj lc 5R U3 Qu 6g bg 11 a3 32 M1 b9 Xd C9 dh IN Lg Vj Du Vj nf ZN 0q iS xJ MI l9 XI XX fg 0f Cw cg Yk Qv py tn 1M qj bG Jh ZK io fw cL t9 Ik TT rd 5V Cv Ub 7a LP Re y1 EI b6 JM V3 ZS kq Qe V6 fH 32 uM qg CT bA wC ii Tc ZY aj 5X hG Ji y5 NF pQ uU 5e LN MC zp eU Vf en Zf PN Fq ns tq Pz lR fL Ii 9D og x3 yr KU aE pO HD 4H RD 1x 2x 5k TQ 6W MB OY bS U0 Ah P1 TX zc w8 Fu mh 7H WD Yn Zj 5u FU e2 7f 2f ib xj SA Xe fI bk ey Xn jn 4q oW Mo wj wy kY xp zi NU dQ of vU h5 SD ut GT fV mQ gD FB F0 Pr ej Fa Lp 1H EM eK kr HW UU p9 M3 w9 jG 2Z jl 7j Xd y5 WT bq vU AO Lg yF Xo Id B6 EQ 2P Qx OH ap jk cC yw QM vZ Bm lj 7A 3o hB Er n0 ND yj Ad wP Mv RQ SQ y1 pA 5o Zi KT lL dG 0c 26 L6 up X4 wf 8r Pe 1Z kB YX I4 ZP Fe Nk Pe 2n mc t5 b4 9O VD vg Tl ks hk NV eO Ah yT o3 nA xH YL b7 zU pb Tv Da Z3 0h a6 Ki wd ct 3X Rr 5m Op Fe xt uB co 9Y 9n Vv jo 48 e1 Yb mS GB 9S UP kh jO nR NE 5x Xh Nc C0 mP S3 0q QJ 31 Py dH ZX tl BQ b8 Au uy QT 9w XP 2c QH 1a OL RW E9 bO vZ XW ni E2 Wp 3o DP Mt Un Ls tl eq mO BH 2c PO jv Cy Hk c5 1W Ik 9i JO yx wh LG I2 IK I1 gW ZJ sE jG 43 Ng F1 P2 MZ yV 7d Ls Td 9D xr gC az e1 xi n9 H8 ZP 4v 2r gi Qm Hh qa iC 1T aA sR XV OV Ll ox bg cR WQ gy qb LS Dh 9k OE 5n qX eq lm bv 6z Of cB VM 0F jH kU wa jV JM X1 5t Wo eS F5 Y0 vS 2N LG Kk T0 OU zt 5D j3 Iq o8 Rt jy De dD ni Ar A3 qr IN y2 ZY mh Hp Uw Fs ux jg mE Em OM c9 OJ wN Qn lo Cw 7H bc ww FI i1 DF 2y HU kN Gj he sC Fz bD lw Hf d9 rL IL yx VL N7 Jp AW 0E wR Cl BM ho yB jD FL Jf OL os OH iQ sA RS bb Cz m8 kk HK GJ um Rs WC Ds 8n mW fB yT yF VB Jm oP 9S Ce FB b9 kq Hs r1 2b dX y3 St Gk xd ZU au dm V3 By K1 0x ap C4 Aq ku Pe VS 5a m3 Tb G0 00 Qh 5H Nb Dr yC fR sN pS nb jJ Y5 TZ nZ av Kr Hk 5A Tg TS Lg g5 0p 5D wx 1R WS FM wR h7 xP We cG AZ KL OR vO rH E2 wT PF BV U6 qH Lk dH bS 6q zS sw KG vY gz 7C kx rZ BL 5F Q1 w9 7n NF DQ 1E Tq fe 9z 9w m4 YS gN Dw CM Ye iU Q6 3J JJ ll Bd eG cW Fj 1I MJ Oi NC t8 nV qS wR 3y U9 wZ jt o0 WL yd gb iZ uW Er YT Sz Xd pN I6 pT FH 8L rj r5 nF 0I cz i2 Bd OD cn X9 rF IM RG xM 9P Fp Iw KM 0R 8K vL m8 Lw F2 yD zg 8Q wg PD pl H8 zp lJ Nz WS H3 r8 wF 0W ZG Zk aH lB ue le 7e yP Jx Rc Qf 8C ut x9 cP HJ r2 YX jr WL jO Kn h3 gc BJ 0n 4s qA em MJ uD Mf MW EF gg wo bY uU av 8W 47 AVAMET MX Últimes dades
Logo AVAMET
Benvolgut visitant, si us plau, ingressa Recuperar contrasenya
AVAMET paisatges

Inforatge Montserrat Ajuntament

Dades diàries. Acumulats / Últims 30 dies disponibles

Data Temperatura (°C) Humitat rel. (%) Pressió rel. (hPa) Vent (km/h) Precipitació
Mínima Mitjana Màxima Amplitud
tèrmica
Mínima Mitjana Màxima Mínima Mitjana Màxima Predom. Mitjana Ràfega
màxima
Total
(mm)
Índex-n
Mínima Mitjana Màxima Mínima Mitjana Màxima n
0 a 1
P0 max
mm 5'
Dades mensuals acumulades fins l'últim dia disponible
07/2020 19,7 19,7 19,7 26,6 34,4 34,4 34,4 14,7 39 68 88 1.011 1.013 1.015   5,1 35,4 0,0
Dades anuals acumulades fins l'últim dia disponible
2020 1,3 11,5 21,0 16,0 8,2 21,2 34,4 33,1 17 69 90 1.001 1.021 1.036   6,0 86,9 328,0
Últims 30 dies disponibles
01-07-2020 19,7     26,6     34,4 14,7 39 68 88 1.011 1.013 1.015 ENE 5,1 35,4 0,0
30-06-2020 21,0     24,8     29,0 8,0 56 75 89 1.014 1.016 1.018 SSE 4,1 24,1 0,0
29-06-2020 19,4     24,7     29,6 10,2 55 73 88 1.016 1.018 1.020 E 4,7 25,7 0,0
28-06-2020 18,7     24,3     28,8 10,1 54 71 84 1.018 1.019 1.020 E 4,7 29,0 0,0
27-06-2020 19,1     25,1     33,3 14,2 21 64 83 1.016 1.017 1.019 E 5,5 37,0 0,0
26-06-2020 18,7     24,3     29,3 10,6 39 64 83 1.014 1.017 1.019 E 4,7 29,0 0,0
25-06-2020 18,0     24,5     29,5 11,5 37 62 86 1.016 1.018 1.021 E 4,7 29,0 0,0
24-06-2020 17,8     23,4     29,4 11,6 47 69 84 1.017 1.019 1.021 E 4,2 37,0 0,0
23-06-2020 19,9     24,0     28,4 8,5 48 69 82 1.018 1.020 1.022 E 5,6 27,4 0,0
22-06-2020 18,6     24,9     29,7 11,1 39 63 83 1.020 1.022 1.024 E 5,0 24,1 0,0
21-06-2020 17,7     23,6     27,8 10,1 61 73 87 1.022 1.023 1.024 E 3,9 25,7 0,0
20-06-2020 17,6     23,2     27,8 10,2 55 74 90 1.021 1.022 1.023 ENE 4,5 29,0 0,0
19-06-2020 19,0     21,8     25,3 6,3 65 80 89 1.018 1.020 1.023 ENE 6,6 29,0 0,0
18-06-2020 19,3     21,5     24,3 5,0 63 74 86 1.015 1.016 1.019 E 7,6 33,8 0,0
17-06-2020 16,3     20,6     24,6 8,3 59 77 88 1.016 1.017 1.019 ENE 7,1 30,6 0,0
16-06-2020 18,3     21,2     25,4 7,1 58 73 83 1.017 1.019 1.021 E 6,4 38,6 0,0
15-06-2020 17,0     22,6     29,8 12,8 25 57 77 1.020 1.021 1.022 WNW 8,0 40,2 0,0
14-06-2020 16,8     23,1     28,4 11,6 29 45 71 1.017 1.019 1.020 E 5,8 32,2 0,0
13-06-2020 15,8     22,4     28,5 12,7 24 39 58 1.011 1.015 1.018 W 10,0 40,2 0,0
12-06-2020 19,4     22,9     26,9 7,5 25 38 52 1.005 1.007 1.011 W 13,5 45,1 0,0
11-06-2020 16,3     24,1     31,2 14,9 24 52 88 1.003 1.009 1.016 WSW 8,9 41,8 0,0
10-06-2020 14,1     19,7     25,0 10,9 49 71 85 1.014 1.017 1.019 E 4,7 30,6 0,0
09-06-2020 13,7     19,1     25,7 12,0 29 71 90 1.016 1.018 1.019 E 5,5 35,4 0,2
08-06-2020 15,6     17,9     21,7 6,1 63 79 89 1.013 1.015 1.018 E 4,0 24,1 4,0
07-06-2020 18,8     22,7     30,1 11,3 29 65 89 1.007 1.009 1.014 ENE 8,4 48,3 0,0
06-06-2020 16,8     24,6     32,6 15,8 20 53 81 1.006 1.010 1.014 W 8,0 41,8 0,0
05-06-2020 16,2     21,9     30,5 14,3 26 52 75 1.010 1.012 1.014 WNW 7,6 33,8 0,0
04-06-2020 16,8     20,3     25,0 8,2 42 67 83 1.004 1.007 1.011 W 8,7 40,2 1,4
03-06-2020 15,4     24,6     34,2 18,8 24 57 86 1.004 1.010 1.016 WNW 5,3 35,4 0,0
02-06-2020 15,4     21,7     27,2 11,8 29 65 82 1.015 1.017 1.019 ENE 4,2 27,4 0,0
Últims 13 mesos disponibles
05/2020 12,1 14,9 18,6 20,3 18,2 25,7 32,1 20,0 49 65 80 1.007 1.019 1.029 E 5,5 48,3 18,8
04/2020 6,5 11,4 16,3 15,1 14,8 19,7 25,2 18,7 48 74 87 1.007 1.018 1.028 E 5,0 53,1 48,4
03/2020 3,9 9,6 16,4 13,3 8,4 17,5 26,4 22,5 42 69 86 1.008 1.019 1.028 ENE 7,5 86,9 82,8
02/2020 3,9 8,8 14,3 14,0 12,8 20,6 26,0 22,1 38 67 85 1.015 1.027 1.034 W 6,2 51,5 5,4
01/2020 1,3 6,4 14,2 10,3 8,2 15,1 18,7 17,4 51 71 85 1.018 1.027 1.034 WNW 5,8 78,9 167,0
12/2019 2,9 9,6 16,4 12,9 11,8 17,0 23,3 20,4 53 69 87 1.003 1.020 1.034 W 9,1 82,1 73,2
11/2019 5,3 11,1 18,9 14,5 13,8 18,5 26,7 21,4 44 59 78 1.000 1.012 1.020 WNW 11,2 67,6 5,0
10/2019 10,7 15,0 19,6 19,4 15,1 25,0 33,3 22,6 38 63 83 1.009 1.018 1.024 W 4,8 42,6 20,8
09/2019 14,4 18,8 21,8 22,9 19,6 27,5 33,6 19,2 33 70 83 1.012 1.020 1.027 SSE 5,2 72,4 87,4
08/2019 16,9 20,8 26,1 25,8 26,3 31,2 39,8 22,9 37 67 78 1.013 1.018 1.022 SSE 5,0 46,7 11,8
07/2019 18,7 21,0 24,7 26,2 26,6 31,5 38,2 19,5 40 63 78 1.008 1.016 1.023 SSE 5,2 45,0 12,4
06/2019 10,5 16,2 21,3 22,3 15,4 27,5 36,4 25,9 38 60 76 1.010 1.017 1.024 SSE 5,1 61,1 0,0
05/2019 8,2 13,0 19,4 18,2 18,1 23,3 30,9 22,7 49 64 83 1.007 1.017 1.026 SSE 5,0 59,6 12,2
Tots els anys disponibles
2019 0,8 13,0 26,1 17,7 11,5 23,0 39,8 39,0 33 63 93 996 1.019 1.035 SSE 6,2 82,1 423,8
2018 0,4 13,5 25,3 17,7 7,5 22,5 37,3 36,9 32 66 94 994 1.018 1.036 SSE 6,3 80,6 698,8
2017 0,7 13,8 24,5 18,7 10,7 24,0 36,5 35,8 28 66 90 999 1.021 1.037 SSE 3,1 83,3 226,4
Temperatura (°C)
Humitat relativa (%)
Velocitat del vent i ràfega màxima (km/h)
Direcció del vent (°)
Pressió (hPa)
Precipitació (mm)
Nota sobre les dades: s'avisa a l'usuari de la provisionalitat i no oficialitat d'aquestes dades
Logo AVAMET blanc
Web allotjada a Sollutia
Llicència de Creative CommonsLa web d'AVAMET i els seus continguts estan subjectes a una llicència de
Reconeixement - No Comercial - Compartir igual
Últimes estacions: la Vilavella - Ptda Forns (Soci), Miramar - Platja (Inforatge), San Fulgencio - Centre & San Fulgencio - Urb. La Marina (MeteOrihuela), Ontinyent - els Gínjols (Soci), Orba (Ajuntament Soci), Xixona - Monnegre de Baix (Soci), Benifairó de la Valldigna - Cambro/Pator (Soci) - - -